sensor_id;sensor_type;location;lat;lon;timestamp;temperature;humidity
44695;DHT22;32845;59.422;17.930;2023-12-04T00:03:41;-8.10;99.90
44695;DHT22;32845;59.422;17.930;2023-12-04T00:08:12;-8.10;99.90
44695;DHT22;32845;59.422;17.930;2023-12-04T00:12:43;-8.10;99.90
44695;DHT22;32845;59.422;17.930;2023-12-04T00:17:13;-8.10;99.90
44695;DHT22;32845;59.422;17.930;2023-12-04T00:21:44;-8.10;99.90
44695;DHT22;32845;59.422;17.930;2023-12-04T00:26:15;-8.10;99.90
44695;DHT22;32845;59.422;17.930;2023-12-04T00:30:46;-8.20;99.90
44695;DHT22;32845;59.422;17.930;2023-12-04T00:35:17;-8.20;99.90
44695;DHT22;32845;59.422;17.930;2023-12-04T00:39:47;-8.20;99.90
44695;DHT22;32845;59.422;17.930;2023-12-04T00:44:18;-8.20;99.90
44695;DHT22;32845;59.422;17.930;2023-12-04T00:48:48;-8.20;99.90
44695;DHT22;32845;59.422;17.930;2023-12-04T00:53:19;-8.10;99.90
44695;DHT22;32845;59.422;17.930;2023-12-04T00:57:49;-8.20;99.90
44695;DHT22;32845;59.422;17.930;2023-12-04T01:02:20;-8.20;99.90
44695;DHT22;32845;59.422;17.930;2023-12-04T01:06:51;-8.20;99.90
44695;DHT22;32845;59.422;17.930;2023-12-04T01:11:22;-8.20;99.90
44695;DHT22;32845;59.422;17.930;2023-12-04T01:15:53;-8.10;99.90
44695;DHT22;32845;59.422;17.930;2023-12-04T01:20:23;-8.10;99.90
44695;DHT22;32845;59.422;17.930;2023-12-04T01:24:54;-8.20;99.90
44695;DHT22;32845;59.422;17.930;2023-12-04T01:29:25;-8.20;99.90
44695;DHT22;32845;59.422;17.930;2023-12-04T01:33:55;-8.20;99.90
44695;DHT22;32845;59.422;17.930;2023-12-04T01:38:26;-8.30;99.90
44695;DHT22;32845;59.422;17.930;2023-12-04T01:42:56;-8.30;99.90
44695;DHT22;32845;59.422;17.930;2023-12-04T01:47:27;-8.40;99.90
44695;DHT22;32845;59.422;17.930;2023-12-04T01:51:57;-8.50;99.90
44695;DHT22;32845;59.422;17.930;2023-12-04T01:56:29;-8.50;99.90
44695;DHT22;32845;59.422;17.930;2023-12-04T02:01:00;-8.60;99.90
44695;DHT22;32845;59.422;17.930;2023-12-04T02:05:31;-8.60;99.90
44695;DHT22;32845;59.422;17.930;2023-12-04T02:10:02;-8.70;99.90
44695;DHT22;32845;59.422;17.930;2023-12-04T02:14:33;-8.80;99.90
44695;DHT22;32845;59.422;17.930;2023-12-04T02:19:04;-8.80;99.90
44695;DHT22;32845;59.422;17.930;2023-12-04T02:23:35;-8.70;99.90
44695;DHT22;32845;59.422;17.930;2023-12-04T02:28:07;-8.80;99.90
44695;DHT22;32845;59.422;17.930;2023-12-04T02:32:45;-8.80;99.90
44695;DHT22;32845;59.422;17.930;2023-12-04T02:37:17;-8.80;99.90
44695;DHT22;32845;59.422;17.930;2023-12-04T02:41:48;-8.90;99.90
44695;DHT22;32845;59.422;17.930;2023-12-04T02:46:19;-9.00;99.90
44695;DHT22;32845;59.422;17.930;2023-12-04T02:50:49;-9.00;99.90
44695;DHT22;32845;59.422;17.930;2023-12-04T02:55:20;-9.10;99.90
44695;DHT22;32845;59.422;17.930;2023-12-04T02:59:50;-9.10;99.90
44695;DHT22;32845;59.422;17.930;2023-12-04T03:04:21;-9.20;99.90
44695;DHT22;32845;59.422;17.930;2023-12-04T03:08:52;-9.20;99.90
44695;DHT22;32845;59.422;17.930;2023-12-04T03:13:22;-9.20;99.90
44695;DHT22;32845;59.422;17.930;2023-12-04T03:17:53;-9.30;99.90
44695;DHT22;32845;59.422;17.930;2023-12-04T03:22:24;-9.30;99.90
44695;DHT22;32845;59.422;17.930;2023-12-04T03:26:54;-9.30;99.90
44695;DHT22;32845;59.422;17.930;2023-12-04T03:31:25;-9.40;99.90
44695;DHT22;32845;59.422;17.930;2023-12-04T03:35:56;-9.40;99.90
44695;DHT22;32845;59.422;17.930;2023-12-04T03:40:26;-9.40;99.90
44695;DHT22;32845;59.422;17.930;2023-12-04T03:44:57;-9.40;99.90
44695;DHT22;32845;59.422;17.930;2023-12-04T03:49:28;-9.40;99.90
44695;DHT22;32845;59.422;17.930;2023-12-04T03:53:58;-9.40;99.90
44695;DHT22;32845;59.422;17.930;2023-12-04T03:58:29;-9.30;99.90
44695;DHT22;32845;59.422;17.930;2023-12-04T04:02:59;-9.30;99.90
44695;DHT22;32845;59.422;17.930;2023-12-04T04:07:30;-9.50;99.90
44695;DHT22;32845;59.422;17.930;2023-12-04T04:12:01;-9.50;99.90
44695;DHT22;32845;59.422;17.930;2023-12-04T04:16:32;-9.50;99.90
44695;DHT22;32845;59.422;17.930;2023-12-04T04:21:02;-9.40;99.90
44695;DHT22;32845;59.422;17.930;2023-12-04T04:25:33;-9.30;99.90
44695;DHT22;32845;59.422;17.930;2023-12-04T04:30:04;-9.20;99.90
44695;DHT22;32845;59.422;17.930;2023-12-04T04:34:35;-9.00;99.90
44695;DHT22;32845;59.422;17.930;2023-12-04T04:39:07;-9.00;99.90
44695;DHT22;32845;59.422;17.930;2023-12-04T04:43:37;-8.90;99.90
44695;DHT22;32845;59.422;17.930;2023-12-04T04:48:08;-8.80;99.90
44695;DHT22;32845;59.422;17.930;2023-12-04T04:52:38;-8.80;99.90
44695;DHT22;32845;59.422;17.930;2023-12-04T04:57:09;-8.70;99.90
44695;DHT22;32845;59.422;17.930;2023-12-04T05:01:39;-8.60;99.90
44695;DHT22;32845;59.422;17.930;2023-12-04T05:06:15;-8.50;99.90
44695;DHT22;32845;59.422;17.930;2023-12-04T05:10:46;-8.50;99.90
44695;DHT22;32845;59.422;17.930;2023-12-04T05:15:17;-8.40;99.90
44695;DHT22;32845;59.422;17.930;2023-12-04T05:19:47;-8.30;99.90
44695;DHT22;32845;59.422;17.930;2023-12-04T05:24:18;-8.30;99.90
44695;DHT22;32845;59.422;17.930;2023-12-04T05:28:48;-8.20;99.90
44695;DHT22;32845;59.422;17.930;2023-12-04T05:33:19;-8.10;99.90
44695;DHT22;32845;59.422;17.930;2023-12-04T05:37:49;-8.10;99.90
44695;DHT22;32845;59.422;17.930;2023-12-04T05:42:20;-8.00;99.90
44695;DHT22;32845;59.422;17.930;2023-12-04T05:46:51;-8.00;99.90
44695;DHT22;32845;59.422;17.930;2023-12-04T05:51:21;-7.90;99.90
44695;DHT22;32845;59.422;17.930;2023-12-04T05:55:52;-7.90;99.90
44695;DHT22;32845;59.422;17.930;2023-12-04T06:00:23;-7.90;99.90
44695;DHT22;32845;59.422;17.930;2023-12-04T06:04:54;-7.80;99.90
44695;DHT22;32845;59.422;17.930;2023-12-04T06:09:24;-7.90;99.90
44695;DHT22;32845;59.422;17.930;2023-12-04T06:13:55;-7.90;99.90
44695;DHT22;32845;59.422;17.930;2023-12-04T06:18:26;-7.90;99.90
44695;DHT22;32845;59.422;17.930;2023-12-04T06:22:57;-7.90;99.90
44695;DHT22;32845;59.422;17.930;2023-12-04T06:27:27;-7.90;99.90
44695;DHT22;32845;59.422;17.930;2023-12-04T06:31:58;-7.90;99.90
44695;DHT22;32845;59.422;17.930;2023-12-04T06:36:31;-8.00;99.90
44695;DHT22;32845;59.422;17.930;2023-12-04T06:41:05;-8.00;99.90
44695;DHT22;32845;59.422;17.930;2023-12-04T06:45:36;-8.00;99.90
44695;DHT22;32845;59.422;17.930;2023-12-04T06:50:07;-7.90;99.90
44695;DHT22;32845;59.422;17.930;2023-12-04T06:54:37;-7.90;99.90
44695;DHT22;32845;59.422;17.930;2023-12-04T06:59:08;-7.90;99.90
44695;DHT22;32845;59.422;17.930;2023-12-04T07:03:39;-7.90;99.90
44695;DHT22;32845;59.422;17.930;2023-12-04T07:08:09;-7.90;99.90
44695;DHT22;32845;59.422;17.930;2023-12-04T07:12:44;-8.00;99.90
44695;DHT22;32845;59.422;17.930;2023-12-04T07:17:15;-8.00;99.90
44695;DHT22;32845;59.422;17.930;2023-12-04T07:21:46;-8.10;99.90
44695;DHT22;32845;59.422;17.930;2023-12-04T07:26:16;-8.10;99.90
44695;DHT22;32845;59.422;17.930;2023-12-04T07:30:47;-8.10;99.90
44695;DHT22;32845;59.422;17.930;2023-12-04T07:35:17;-8.20;99.90
44695;DHT22;32845;59.422;17.930;2023-12-04T07:39:48;-8.20;99.90
44695;DHT22;32845;59.422;17.930;2023-12-04T07:44:19;-8.10;99.90
44695;DHT22;32845;59.422;17.930;2023-12-04T07:48:49;-8.10;99.90
44695;DHT22;32845;59.422;17.930;2023-12-04T07:53:20;-8.10;99.90
44695;DHT22;32845;59.422;17.930;2023-12-04T07:57:51;-8.00;99.90
44695;DHT22;32845;59.422;17.930;2023-12-04T08:02:21;-8.00;99.90
44695;DHT22;32845;59.422;17.930;2023-12-04T08:06:52;-8.00;99.90
44695;DHT22;32845;59.422;17.930;2023-12-04T08:11:22;-8.00;99.90
44695;DHT22;32845;59.422;17.930;2023-12-04T08:15:53;-8.00;99.90
44695;DHT22;32845;59.422;17.930;2023-12-04T08:20:24;-7.90;99.90
44695;DHT22;32845;59.422;17.930;2023-12-04T08:24:54;-7.90;99.90
44695;DHT22;32845;59.422;17.930;2023-12-04T08:29:25;-7.90;99.90
44695;DHT22;32845;59.422;17.930;2023-12-04T08:33:56;-7.90;99.90
44695;DHT22;32845;59.422;17.930;2023-12-04T08:38:26;-7.90;99.90
44695;DHT22;32845;59.422;17.930;2023-12-04T08:42:57;-7.80;99.90
44695;DHT22;32845;59.422;17.930;2023-12-04T08:47:27;-7.80;99.90
44695;DHT22;32845;59.422;17.930;2023-12-04T08:51:58;-7.70;99.90
44695;DHT22;32845;59.422;17.930;2023-12-04T08:56:29;-7.70;99.90
44695;DHT22;32845;59.422;17.930;2023-12-04T09:00:59;-7.60;99.90
44695;DHT22;32845;59.422;17.930;2023-12-04T09:05:30;-7.60;99.90
44695;DHT22;32845;59.422;17.930;2023-12-04T09:10:01;-7.50;99.90
44695;DHT22;32845;59.422;17.930;2023-12-04T09:14:31;-7.40;99.90
44695;DHT22;32845;59.422;17.930;2023-12-04T09:19:02;-7.40;99.90
44695;DHT22;32845;59.422;17.930;2023-12-04T09:23:32;-7.30;99.90
44695;DHT22;32845;59.422;17.930;2023-12-04T09:28:03;-7.20;99.90
44695;DHT22;32845;59.422;17.930;2023-12-04T09:32:34;-7.20;99.90
44695;DHT22;32845;59.422;17.930;2023-12-04T09:37:04;-7.10;99.90
44695;DHT22;32845;59.422;17.930;2023-12-04T09:41:35;-7.00;99.90
44695;DHT22;32845;59.422;17.930;2023-12-04T09:46:07;-7.00;99.90
44695;DHT22;32845;59.422;17.930;2023-12-04T09:50:38;-6.90;99.90
44695;DHT22;32845;59.422;17.930;2023-12-04T09:55:09;-6.90;99.90
44695;DHT22;32845;59.422;17.930;2023-12-04T09:59:40;-6.90;99.90
44695;DHT22;32845;59.422;17.930;2023-12-04T10:04:11;-6.80;99.90
44695;DHT22;32845;59.422;17.930;2023-12-04T10:08:41;-6.80;99.90
44695;DHT22;32845;59.422;17.930;2023-12-04T10:13:12;-6.70;99.90
44695;DHT22;32845;59.422;17.930;2023-12-04T10:17:43;-6.60;99.90
44695;DHT22;32845;59.422;17.930;2023-12-04T10:22:14;-6.50;99.90
44695;DHT22;32845;59.422;17.930;2023-12-04T10:26:50;-6.50;99.90
44695;DHT22;32845;59.422;17.930;2023-12-04T10:31:23;-6.30;99.90
44695;DHT22;32845;59.422;17.930;2023-12-04T10:35:54;-6.10;99.90
44695;DHT22;32845;59.422;17.930;2023-12-04T10:40:29;-6.00;99.90
44695;DHT22;32845;59.422;17.930;2023-12-04T10:45:01;-5.80;99.90
44695;DHT22;32845;59.422;17.930;2023-12-04T10:49:33;-5.60;99.90
44695;DHT22;32845;59.422;17.930;2023-12-04T10:54:05;-5.70;99.90
44695;DHT22;32845;59.422;17.930;2023-12-04T10:58:39;-5.80;99.90
44695;DHT22;32845;59.422;17.930;2023-12-04T11:03:13;-5.80;99.90
44695;DHT22;32845;59.422;17.930;2023-12-04T11:07:48;-5.70;99.90
44695;DHT22;32845;59.422;17.930;2023-12-04T11:12:25;-5.70;99.90
44695;DHT22;32845;59.422;17.930;2023-12-04T11:17:05;-5.70;99.90
44695;DHT22;32845;59.422;17.930;2023-12-04T11:21:39;-5.70;99.90
44695;DHT22;32845;59.422;17.930;2023-12-04T11:26:11;-5.70;99.90
44695;DHT22;32845;59.422;17.930;2023-12-04T11:30:43;-5.60;99.90
44695;DHT22;32845;59.422;17.930;2023-12-04T11:35:16;-5.50;99.90
44695;DHT22;32845;59.422;17.930;2023-12-04T11:39:49;-5.50;99.90
44695;DHT22;32845;59.422;17.930;2023-12-04T11:44:20;-5.50;99.90
44695;DHT22;32845;59.422;17.930;2023-12-04T11:48:54;-5.50;99.90
44695;DHT22;32845;59.422;17.930;2023-12-04T11:53:25;-5.50;99.90
44695;DHT22;32845;59.422;17.930;2023-12-04T11:57:56;-5.50;99.90
44695;DHT22;32845;59.422;17.930;2023-12-04T12:02:28;-5.60;99.90
44695;DHT22;32845;59.422;17.930;2023-12-04T12:06:59;-5.60;99.90
44695;DHT22;32845;59.422;17.930;2023-12-04T12:11:32;-5.70;99.90
44695;DHT22;32845;59.422;17.930;2023-12-04T12:16:04;-5.70;99.90
44695;DHT22;32845;59.422;17.930;2023-12-04T12:20:37;-5.70;99.90
44695;DHT22;32845;59.422;17.930;2023-12-04T12:25:08;-5.70;99.90
44695;DHT22;32845;59.422;17.930;2023-12-04T12:29:39;-5.70;99.90
44695;DHT22;32845;59.422;17.930;2023-12-04T12:34:10;-5.80;99.90
44695;DHT22;32845;59.422;17.930;2023-12-04T12:38:40;-5.90;99.90
44695;DHT22;32845;59.422;17.930;2023-12-04T12:43:12;-5.90;99.90
44695;DHT22;32845;59.422;17.930;2023-12-04T12:47:43;-6.00;99.90
44695;DHT22;32845;59.422;17.930;2023-12-04T12:52:14;-6.00;99.90
44695;DHT22;32845;59.422;17.930;2023-12-04T12:56:48;-6.10;99.90
44695;DHT22;32845;59.422;17.930;2023-12-04T13:01:22;-6.20;99.90
44695;DHT22;32845;59.422;17.930;2023-12-04T13:05:52;-6.30;99.90
44695;DHT22;32845;59.422;17.930;2023-12-04T13:10:23;-6.40;99.90
44695;DHT22;32845;59.422;17.930;2023-12-04T13:14:55;-6.40;99.90
44695;DHT22;32845;59.422;17.930;2023-12-04T13:19:25;-6.50;99.90
44695;DHT22;32845;59.422;17.930;2023-12-04T13:23:56;-6.60;99.90
44695;DHT22;32845;59.422;17.930;2023-12-04T13:28:27;-6.60;99.90
44695;DHT22;32845;59.422;17.930;2023-12-04T13:32:57;-6.70;99.90
44695;DHT22;32845;59.422;17.930;2023-12-04T13:37:28;-6.80;99.90
44695;DHT22;32845;59.422;17.930;2023-12-04T13:41:58;-6.90;99.90
44695;DHT22;32845;59.422;17.930;2023-12-04T13:46:49;-7.00;99.90
44695;DHT22;32845;59.422;17.930;2023-12-04T13:51:20;-7.00;99.90
44695;DHT22;32845;59.422;17.930;2023-12-04T13:55:50;-7.10;99.90
44695;DHT22;32845;59.422;17.930;2023-12-04T14:00:24;-7.20;99.90
44695;DHT22;32845;59.422;17.930;2023-12-04T14:04:54;-7.20;99.90
44695;DHT22;32845;59.422;17.930;2023-12-04T14:09:25;-7.30;99.90
44695;DHT22;32845;59.422;17.930;2023-12-04T14:13:55;-7.50;99.90
44695;DHT22;32845;59.422;17.930;2023-12-04T14:18:26;-7.60;99.90
44695;DHT22;32845;59.422;17.930;2023-12-04T14:22:57;-7.70;99.90
44695;DHT22;32845;59.422;17.930;2023-12-04T14:27:27;-7.60;99.90
44695;DHT22;32845;59.422;17.930;2023-12-04T14:31:58;-7.60;99.90
44695;DHT22;32845;59.422;17.930;2023-12-04T14:36:29;-7.60;99.90
44695;DHT22;32845;59.422;17.930;2023-12-04T14:41:02;-7.60;99.90
44695;DHT22;32845;59.422;17.930;2023-12-04T14:45:33;-7.60;99.90
44695;DHT22;32845;59.422;17.930;2023-12-04T14:50:04;-7.70;99.90
44695;DHT22;32845;59.422;17.930;2023-12-04T14:54:34;-7.90;99.90
44695;DHT22;32845;59.422;17.930;2023-12-04T14:59:22;-8.10;99.90
44695;DHT22;32845;59.422;17.930;2023-12-04T15:04:07;-8.20;99.90
44695;DHT22;32845;59.422;17.930;2023-12-04T15:08:47;-8.30;99.90
44695;DHT22;32845;59.422;17.930;2023-12-04T15:13:38;-8.40;99.90
44695;DHT22;32845;59.422;17.930;2023-12-04T15:18:23;-8.60;99.90
44695;DHT22;32845;59.422;17.930;2023-12-04T15:23:04;-8.70;99.90
44695;DHT22;32845;59.422;17.930;2023-12-04T15:27:35;-8.80;99.90
44695;DHT22;32845;59.422;17.930;2023-12-04T15:32:06;-8.90;99.90
44695;DHT22;32845;59.422;17.930;2023-12-04T15:36:36;-9.00;99.90
44695;DHT22;32845;59.422;17.930;2023-12-04T15:41:07;-9.10;99.90
44695;DHT22;32845;59.422;17.930;2023-12-04T15:45:39;-9.00;99.90
44695;DHT22;32845;59.422;17.930;2023-12-04T15:50:09;-9.10;99.90
44695;DHT22;32845;59.422;17.930;2023-12-04T15:54:40;-9.10;99.90
44695;DHT22;32845;59.422;17.930;2023-12-04T15:59:11;-9.20;99.90
44695;DHT22;32845;59.422;17.930;2023-12-04T16:03:42;-9.30;99.90
44695;DHT22;32845;59.422;17.930;2023-12-04T16:08:12;-9.40;99.90
44695;DHT22;32845;59.422;17.930;2023-12-04T16:12:44;-9.40;99.90
44695;DHT22;32845;59.422;17.930;2023-12-04T16:17:19;-9.50;99.90
44695;DHT22;32845;59.422;17.930;2023-12-04T16:21:50;-9.50;99.90
44695;DHT22;32845;59.422;17.930;2023-12-04T16:26:20;-9.50;99.90
44695;DHT22;32845;59.422;17.930;2023-12-04T16:30:51;-9.50;99.90
44695;DHT22;32845;59.422;17.930;2023-12-04T16:35:22;-9.50;99.90
44695;DHT22;32845;59.422;17.930;2023-12-04T16:39:52;-9.60;99.90
44695;DHT22;32845;59.422;17.930;2023-12-04T16:44:23;-9.60;99.90
44695;DHT22;32845;59.422;17.930;2023-12-04T16:48:53;-9.60;99.90
44695;DHT22;32845;59.422;17.930;2023-12-04T16:53:24;-9.60;99.90
44695;DHT22;32845;59.422;17.930;2023-12-04T16:57:55;-9.50;99.90
44695;DHT22;32845;59.422;17.930;2023-12-04T17:02:33;-9.60;99.90
44695;DHT22;32845;59.422;17.930;2023-12-04T17:07:04;-9.70;99.90
44695;DHT22;32845;59.422;17.930;2023-12-04T17:11:34;-9.70;99.90
44695;DHT22;32845;59.422;17.930;2023-12-04T17:16:06;-9.80;99.90
44695;DHT22;32845;59.422;17.930;2023-12-04T17:20:37;-9.70;99.90
44695;DHT22;32845;59.422;17.930;2023-12-04T17:25:13;-9.40;99.90
44695;DHT22;32845;59.422;17.930;2023-12-04T17:29:43;-9.30;99.90
44695;DHT22;32845;59.422;17.930;2023-12-04T17:34:15;-9.20;99.90
44695;DHT22;32845;59.422;17.930;2023-12-04T17:38:45;-9.30;99.90
44695;DHT22;32845;59.422;17.930;2023-12-04T17:43:17;-9.40;99.90
44695;DHT22;32845;59.422;17.930;2023-12-04T17:47:47;-9.30;99.90
44695;DHT22;32845;59.422;17.930;2023-12-04T17:52:18;-9.40;99.90
44695;DHT22;32845;59.422;17.930;2023-12-04T17:56:48;-9.40;99.90
44695;DHT22;32845;59.422;17.930;2023-12-04T18:01:19;-9.40;99.90
44695;DHT22;32845;59.422;17.930;2023-12-04T18:05:50;-9.50;99.90
44695;DHT22;32845;59.422;17.930;2023-12-04T18:10:20;-9.60;99.90
44695;DHT22;32845;59.422;17.930;2023-12-04T18:14:52;-9.60;99.90
44695;DHT22;32845;59.422;17.930;2023-12-04T18:19:23;-9.60;99.90
44695;DHT22;32845;59.422;17.930;2023-12-04T18:23:53;-9.60;99.90
44695;DHT22;32845;59.422;17.930;2023-12-04T18:28:27;-9.70;99.90
44695;DHT22;32845;59.422;17.930;2023-12-04T18:32:58;-9.80;99.90
44695;DHT22;32845;59.422;17.930;2023-12-04T18:37:37;-9.90;99.90
44695;DHT22;32845;59.422;17.930;2023-12-04T18:42:11;-10.00;99.90
44695;DHT22;32845;59.422;17.930;2023-12-04T18:46:43;-10.00;99.90
44695;DHT22;32845;59.422;17.930;2023-12-04T18:51:16;-10.10;99.90
44695;DHT22;32845;59.422;17.930;2023-12-04T18:55:46;-10.20;99.90
44695;DHT22;32845;59.422;17.930;2023-12-04T19:00:17;-10.30;99.90
44695;DHT22;32845;59.422;17.930;2023-12-04T19:04:48;-10.30;99.90
44695;DHT22;32845;59.422;17.930;2023-12-04T19:09:19;-10.40;99.90
44695;DHT22;32845;59.422;17.930;2023-12-04T19:13:49;-10.50;99.90
44695;DHT22;32845;59.422;17.930;2023-12-04T19:18:20;-10.50;99.90
44695;DHT22;32845;59.422;17.930;2023-12-04T19:22:50;-10.60;99.90
44695;DHT22;32845;59.422;17.930;2023-12-04T19:27:21;-10.60;99.90
44695;DHT22;32845;59.422;17.930;2023-12-04T19:31:51;-10.60;99.90
44695;DHT22;32845;59.422;17.930;2023-12-04T19:36:22;-10.70;99.90
44695;DHT22;32845;59.422;17.930;2023-12-04T19:40:53;-10.70;99.90
44695;DHT22;32845;59.422;17.930;2023-12-04T19:45:23;-10.70;99.90
44695;DHT22;32845;59.422;17.930;2023-12-04T19:49:54;-10.80;99.90
44695;DHT22;32845;59.422;17.930;2023-12-04T19:54:24;-10.80;99.90
44695;DHT22;32845;59.422;17.930;2023-12-04T19:58:55;-10.80;99.90
44695;DHT22;32845;59.422;17.930;2023-12-04T20:03:25;-10.90;99.90
44695;DHT22;32845;59.422;17.930;2023-12-04T20:07:56;-10.90;99.90
44695;DHT22;32845;59.422;17.930;2023-12-04T20:12:27;-10.90;99.90
44695;DHT22;32845;59.422;17.930;2023-12-04T20:16:59;-11.00;99.90
44695;DHT22;32845;59.422;17.930;2023-12-04T20:21:30;-11.00;99.90
44695;DHT22;32845;59.422;17.930;2023-12-04T20:26:01;-10.90;99.90
44695;DHT22;32845;59.422;17.930;2023-12-04T20:30:32;-10.90;99.90
44695;DHT22;32845;59.422;17.930;2023-12-04T20:35:03;-11.00;99.90
44695;DHT22;32845;59.422;17.930;2023-12-04T20:39:34;-11.00;99.90
44695;DHT22;32845;59.422;17.930;2023-12-04T20:44:06;-11.00;99.90
44695;DHT22;32845;59.422;17.930;2023-12-04T20:48:37;-11.00;99.90
44695;DHT22;32845;59.422;17.930;2023-12-04T20:53:07;-11.10;99.90
44695;DHT22;32845;59.422;17.930;2023-12-04T20:57:39;-11.10;99.90
44695;DHT22;32845;59.422;17.930;2023-12-04T21:02:09;-11.20;99.90
44695;DHT22;32845;59.422;17.930;2023-12-04T21:06:40;-11.30;99.90
44695;DHT22;32845;59.422;17.930;2023-12-04T21:11:10;-11.20;99.90
44695;DHT22;32845;59.422;17.930;2023-12-04T21:15:41;-11.20;99.90
44695;DHT22;32845;59.422;17.930;2023-12-04T21:20:13;-11.30;99.90
44695;DHT22;32845;59.422;17.930;2023-12-04T21:24:44;-11.40;99.90
44695;DHT22;32845;59.422;17.930;2023-12-04T21:29:15;-11.40;99.90
44695;DHT22;32845;59.422;17.930;2023-12-04T21:33:47;-11.50;99.90
44695;DHT22;32845;59.422;17.930;2023-12-04T21:38:17;-11.40;99.90
44695;DHT22;32845;59.422;17.930;2023-12-04T21:42:48;-11.40;99.90
44695;DHT22;32845;59.422;17.930;2023-12-04T21:47:18;-11.40;99.90
44695;DHT22;32845;59.422;17.930;2023-12-04T21:51:49;-11.30;99.90
44695;DHT22;32845;59.422;17.930;2023-12-04T21:56:19;-11.20;99.90
44695;DHT22;32845;59.422;17.930;2023-12-04T22:00:50;-11.20;99.90
44695;DHT22;32845;59.422;17.930;2023-12-04T22:05:21;-11.10;99.90
44695;DHT22;32845;59.422;17.930;2023-12-04T22:09:51;-11.00;99.90
44695;DHT22;32845;59.422;17.930;2023-12-04T22:14:24;-11.10;99.90
44695;DHT22;32845;59.422;17.930;2023-12-04T22:18:55;-11.10;99.90
44695;DHT22;32845;59.422;17.930;2023-12-04T22:23:25;-11.10;99.90
44695;DHT22;32845;59.422;17.930;2023-12-04T22:27:56;-11.00;99.90
44695;DHT22;32845;59.422;17.930;2023-12-04T22:32:27;-10.90;99.90
44695;DHT22;32845;59.422;17.930;2023-12-04T22:36:57;-10.70;99.90
44695;DHT22;32845;59.422;17.930;2023-12-04T22:41:28;-10.60;99.90
44695;DHT22;32845;59.422;17.930;2023-12-04T22:45:58;-10.40;99.90
44695;DHT22;32845;59.422;17.930;2023-12-04T22:50:29;-10.20;99.90
44695;DHT22;32845;59.422;17.930;2023-12-04T22:55:00;-10.00;99.90
44695;DHT22;32845;59.422;17.930;2023-12-04T22:59:30;-9.80;99.90
44695;DHT22;32845;59.422;17.930;2023-12-04T23:04:01;-9.70;99.90
44695;DHT22;32845;59.422;17.930;2023-12-04T23:08:31;-9.60;99.90
44695;DHT22;32845;59.422;17.930;2023-12-04T23:13:02;-9.60;99.90
44695;DHT22;32845;59.422;17.930;2023-12-04T23:17:33;-9.60;99.90
44695;DHT22;32845;59.422;17.930;2023-12-04T23:22:03;-9.50;99.90
44695;DHT22;32845;59.422;17.930;2023-12-04T23:26:34;-9.40;99.90
44695;DHT22;32845;59.422;17.930;2023-12-04T23:31:05;-9.40;99.90
44695;DHT22;32845;59.422;17.930;2023-12-04T23:35:35;-9.50;99.90
44695;DHT22;32845;59.422;17.930;2023-12-04T23:40:06;-9.50;99.90
44695;DHT22;32845;59.422;17.930;2023-12-04T23:44:38;-9.60;99.90
44695;DHT22;32845;59.422;17.930;2023-12-04T23:49:08;-9.60;99.90
44695;DHT22;32845;59.422;17.930;2023-12-04T23:53:39;-9.60;99.90
44695;DHT22;32845;59.422;17.930;2023-12-04T23:58:09;-9.70;99.90
